Time;durP1;ratioP1;P1;durP2;ratioP2;P2;SDS_P1;SDS_P2;PMS_P1;PMS_P2;Temp;Humidity;BMP_temperature;BMP_pressure;BME280_temperature;BME280_humidity;BME280_pressure;Samples;Min_cycle;Max_cycle;Signal;HPM_P1;HPM_P2
2022/08/14 00:00:55;;;;;;;6.03;2.22;;;27.70;37.20;;;;;;7364556;19;20698;-77
2022/08/14 00:03:27;;;;;;;5.28;2.05;;;27.60;37.30;;;;;;7367955;19;20078;-77
2022/08/14 00:06:01;;;;;;;7.45;2.38;;;27.60;37.20;;;;;;7366791;19;20031;-76
2022/08/14 00:08:33;;;;;;;4.05;2.55;;;27.60;37.10;;;;;;7366844;19;20006;-76
2022/08/14 00:11:01;;;;;;;3.58;2.30;;;27.60;37.10;;;;;;7366336;19;20102;-77
2022/08/14 00:13:31;;;;;;;8.63;2.30;;;27.60;37.20;;;;;;7390106;19;20010;-78
2022/08/14 00:16:02;;;;;;;3.40;2.50;;;27.50;37.20;;;;;;7366558;19;20031;-78
2022/08/14 00:18:31;;;;;;;3.47;2.03;;;27.50;37.20;;;;;;7368006;19;20006;-77
2022/08/14 00:20:59;;;;;;;5.90;2.38;;;27.50;37.50;;;;;;7375203;19;20335;-78
2022/08/14 00:23:28;;;;;;;6.22;2.50;;;27.50;37.60;;;;;;7383600;19;20014;-77
2022/08/14 00:26:00;;;;;;;6.20;2.20;;;27.50;37.40;;;;;;7399378;19;20231;-77
2022/08/14 00:28:29;;;;;;;8.27;2.60;;;27.40;37.50;;;;;;7420708;19;19998;-77
2022/08/14 00:30:59;;;;;;;3.88;2.30;;;27.40;37.40;;;;;;7377844;19;20082;-78
2022/08/14 00:33:29;;;;;;;5.18;2.50;;;27.40;37.60;;;;;;7374624;19;20398;-77
2022/08/14 00:35:58;;;;;;;7.32;2.45;;;27.40;38.40;;;;;;7370866;19;20064;-77
2022/08/14 00:38:27;;;;;;;4.18;2.75;;;27.40;38.00;;;;;;7370125;19;20011;-77
2022/08/14 00:40:55;;;;;;;5.57;2.53;;;27.40;38.10;;;;;;7370932;19;20013;-76
2022/08/14 00:43:27;;;;;;;3.65;2.40;;;27.40;38.40;;;;;;7388784;19;20117;-76
2022/08/14 00:45:55;;;;;;;4.50;2.53;;;27.30;38.50;;;;;;7367860;19;20380;-76
2022/08/14 00:48:24;;;;;;;5.57;2.05;;;27.40;38.60;;;;;;7368907;19;20026;-76
2022/08/14 00:50:53;;;;;;;4.35;2.60;;;27.30;38.80;;;;;;7368735;19;20020;-77
2022/08/14 00:53:24;;;;;;;8.30;2.42;;;27.30;38.90;;;;;;7366846;19;20056;-77
2022/08/14 00:55:55;;;;;;;4.93;2.80;;;27.30;39.00;;;;;;7365671;19;20015;-77
2022/08/14 00:58:33;;;;;;;4.25;2.42;;;27.30;39.10;;;;;;7389516;19;20441;-77
2022/08/14 01:01:06;;;;;;;5.22;2.45;;;27.20;39.10;;;;;;7368224;19;20324;-77
2022/08/14 01:03:40;;;;;;;4.65;2.17;;;27.20;39.20;;;;;;7365987;19;20409;-76
2022/08/14 01:06:10;;;;;;;3.60;2.08;;;27.20;39.30;;;;;;7368723;19;20027;-78
2022/08/14 01:08:42;;;;;;;3.05;2.65;;;27.20;39.30;;;;;;7369047;19;20445;-78
2022/08/14 01:11:17;;;;;;;2.42;2.17;;;27.10;39.90;;;;;;7366792;19;20086;-77
2022/08/14 01:13:51;;;;;;;3.58;2.50;;;27.00;39.30;;;;;;7365592;19;20026;-79
2022/08/14 01:16:20;;;;;;;6.30;2.47;;;27.00;39.40;;;;;;7387654;19;20010;-77
2022/08/14 01:21:37;;;;;;;2.63;2.17;;;26.90;39.30;;;;;;7365491;19;20014;-77
2022/08/14 01:24:09;;;;;;;4.55;2.45;;;26.90;39.20;;;;;;7366287;19;20598;-77
2022/08/14 01:26:38;;;;;;;6.50;2.40;;;26.90;39.50;;;;;;7367472;19;20448;-77
2022/08/14 01:29:08;;;;;;;3.28;2.20;;;26.90;39.30;;;;;;7365358;19;20121;-78
2022/08/14 01:31:39;;;;;;;5.32;2.28;;;26.90;39.40;;;;;;7362950;19;20665;-78
2022/08/14 01:34:09;;;;;;;4.80;2.38;;;26.90;39.80;;;;;;7385074;19;20441;-76
2022/08/14 01:36:40;;;;;;;5.72;2.60;;;26.90;39.90;;;;;;7365410;19;20747;-77
2022/08/14 01:39:12;;;;;;;3.97;2.10;;;26.90;40.20;;;;;;7365736;19;20078;-77
2022/08/14 01:41:42;;;;;;;4.47;2.40;;;26.80;40.50;;;;;;7365937;19;20021;-77
2022/08/14 01:44:14;;;;;;;4.55;2.50;;;26.80;40.60;;;;;;7363629;19;20010;-77
2022/08/14 01:46:45;;;;;;;3.83;2.30;;;26.80;40.70;;;;;;7362668;19;20036;-77
2022/08/14 01:49:17;;;;;;;6.70;2.83;;;26.70;40.70;;;;;;7386869;19;20340;-77
2022/08/14 01:51:55;;;;;;;2.70;2.10;;;26.70;40.60;;;;;;7363248;19;20021;-77
2022/08/14 01:54:27;;;;;;;3.88;2.30;;;26.70;40.40;;;;;;7366268;19;20010;-77
2022/08/14 01:56:58;;;;;;;4.53;2.20;;;26.70;40.20;;;;;;7365295;19;20440;-77
2022/08/14 01:59:31;;;;;;;5.15;2.00;;;26.70;40.30;;;;;;7365158;19;20027;-83
2022/08/14 02:02:11;;;;;;;2.40;2.20;;;26.70;40.10;;;;;;7364309;19;20350;-77
2022/08/14 02:04:44;;;;;;;4.47;2.17;;;26.70;39.80;;;;;;7365116;19;20026;-78
2022/08/14 02:07:15;;;;;;;3.42;1.90;;;26.60;39.90;;;;;;7385860;19;20670;-78
2022/08/14 02:09:44;;;;;;;4.38;2.22;;;26.60;40.40;;;;;;7365648;19;20311;-77
2022/08/14 02:12:14;;;;;;;7.53;2.47;;;26.60;41.00;;;;;;7364330;19;20011;-77
2022/08/14 02:14:42;;;;;;;2.85;2.20;;;26.50;40.40;;;;;;7366632;19;20505;-77
2022/08/14 02:17:12;;;;;;;2.63;1.90;;;26.50;40.40;;;;;;7363892;19;20014;-77
2022/08/14 02:19:40;;;;;;;5.18;2.60;;;26.40;40.00;;;;;;7366353;19;20015;-77
2022/08/14 02:22:09;;;;;;;4.68;2.22;;;26.30;40.40;;;;;;7384207;19;20097;-77
2022/08/14 02:24:41;;;;;;;3.28;2.38;;;26.30;40.40;;;;;;7364511;19;20040;-77
2022/08/14 02:27:09;;;;;;;;;;;26.40;40.70;;;;;;7364982;19;20019;-77
2022/08/14 02:29:39;;;;;;;5.78;2.25;;;26.40;40.50;;;;;;7366318;19;19915;-77
2022/08/14 02:32:09;;;;;;;4.68;2.00;;;26.30;40.50;;;;;;7364381;19;20108;-77
2022/08/14 02:34:39;;;;;;;6.50;2.13;;;26.30;40.70;;;;;;7365881;19;20019;-77
2022/08/14 02:37:10;;;;;;;6.90;2.50;;;26.40;40.70;;;;;;7385098;19;20176;-77
2022/08/14 02:39:49;;;;;;;4.28;2.30;;;26.40;40.80;;;;;;7363883;19;20113;-77
2022/08/14 02:42:20;;;;;;;5.95;2.53;;;26.40;40.90;;;;;;7363484;19;20026;-77
2022/08/14 02:44:49;;;;;;;5.15;2.40;;;26.40;41.00;;;;;;7364575;19;20011;-77
2022/08/14 02:47:21;;;;;;;5.05;2.17;;;26.40;40.90;;;;;;7363767;19;20010;-77
2022/08/14 02:49:53;;;;;;;5.57;2.70;;;26.30;41.10;;;;;;7363680;19;20613;-77
2022/08/14 02:52:21;;;;;;;;;;;26.30;41.30;;;;;;7383567;19;20015;-77
2022/08/14 02:54:52;;;;;;;3.75;2.30;;;26.30;41.40;;;;;;7363579;19;20046;-77
2022/08/14 02:57:23;;;;;;;4.50;2.65;;;26.30;41.50;;;;;;7362898;19;20094;-77
2022/08/14 02:59:54;;;;;;;4.82;2.22;;;26.30;41.40;;;;;;7363498;19;20026;-78
2022/08/14 03:02:23;;;;;;;6.95;2.55;;;26.20;41.50;;;;;;7364969;19;20104;-78
2022/08/14 03:04:53;;;;;;;6.68;2.80;;;26.20;41.60;;;;;;7363321;19;20468;-78
2022/08/14 03:07:21;;;;;;;10.38;2.47;;;26.20;41.80;;;;;;7385524;19;20018;-77
2022/08/14 03:09:53;;;;;;;4.00;2.65;;;26.20;42.00;;;;;;7362875;19;20039;-77
2022/08/14 03:12:21;;;;;;;;;;;26.20;42.00;;;;;;7362131;19;20011;-77
2022/08/14 03:14:51;;;;;;;3.88;2.45;;;26.20;42.10;;;;;;7364017;19;19914;-78
2022/08/14 03:17:20;;;;;;;3.55;2.60;;;26.20;42.20;;;;;;7362388;19;20029;-77
2022/08/14 03:19:50;;;;;;;4.90;2.70;;;26.10;42.40;;;;;;7362761;19;20019;-77
2022/08/14 03:22:18;;;;;;;5.32;2.47;;;26.10;42.50;;;;;;7382381;19;20087;-78
2022/08/14 03:24:47;;;;;;;4.18;2.40;;;26.10;42.30;;;;;;7361547;19;20090;-77
2022/08/14 03:27:19;;;;;;;5.45;2.63;;;26.10;42.40;;;;;;7361505;19;20034;-77
2022/08/14 03:29:47;;;;;;;3.00;2.60;;;26.00;42.40;;;;;;7362100;19;20013;-78
2022/08/14 03:32:16;;;;;;;4.32;2.55;;;26.00;42.50;;;;;;7362879;19;20018;-77
2022/08/14 03:34:45;;;;;;;3.58;2.63;;;25.90;42.40;;;;;;7362244;19;20463;-77
2022/08/14 03:37:14;;;;;;;2.65;2.28;;;25.90;42.50;;;;;;7391806;19;20015;-77
2022/08/14 03:39:43;;;;;;;6.55;2.60;;;25.90;42.60;;;;;;7370164;19;20026;-77
2022/08/14 03:42:12;;;;;;;3.30;2.50;;;25.90;42.70;;;;;;7369703;19;20028;-77
2022/08/14 03:44:44;;;;;;;3.10;2.47;;;25.90;42.80;;;;;;7368790;19;20070;-77
2022/08/14 03:47:13;;;;;;;4.32;2.88;;;25.80;42.90;;;;;;7369431;19;20006;-77
2022/08/14 03:49:42;;;;;;;4.55;2.80;;;25.80;43.00;;;;;;7370864;19;20010;-77
2022/08/14 03:52:12;;;;;;;3.38;2.60;;;25.80;43.10;;;;;;7390450;19;20035;-77
2022/08/14 03:54:41;;;;;;;4.95;2.90;;;25.80;43.30;;;;;;7369674;19;20119;-77
2022/08/14 03:57:09;;;;;;;5.10;3.03;;;25.80;43.50;;;;;;7368589;19;20145;-77
2022/08/14 03:59:38;;;;;;;10.43;3.00;;;25.80;43.60;;;;;;7372065;19;20007;-78
2022/08/14 04:02:09;;;;;;;3.70;2.80;;;25.80;43.60;;;;;;7369482;19;20174;-77
2022/08/14 04:04:38;;;;;;;;;;;25.80;43.50;;;;;;7371938;19;20083;-77
2022/08/14 04:07:09;;;;;;;2.97;2.60;;;25.80;43.50;;;;;;7389116;19;19923;-77
2022/08/14 04:09:38;;;;;;;4.53;2.30;;;25.80;43.30;;;;;;7377082;19;20113;-78
2022/08/14 04:12:07;;;;;;;3.45;2.25;;;25.80;43.10;;;;;;7386862;19;20015;-78
2022/08/14 04:14:36;;;;;;;8.52;2.65;;;25.80;42.70;;;;;;7397806;19;20015;-78
2022/08/14 04:17:05;;;;;;;5.80;2.80;;;25.70;43.40;;;;;;7388614;19;20042;-78
2022/08/14 04:19:36;;;;;;;4.93;2.60;;;25.70;43.70;;;;;;7395531;19;20018;-78
2022/08/14 04:22:05;;;;;;;;;;;25.70;43.60;;;;;;7393980;19;20091;-77
2022/08/14 04:24:35;;;;;;;4.63;2.50;;;25.70;43.70;;;;;;7369682;19;19917;-78
2022/08/14 04:27:07;;;;;;;2.58;2.10;;;25.70;43.50;;;;;;7372045;19;20489;-78
2022/08/14 04:29:39;;;;;;;7.57;2.33;;;25.70;42.60;;;;;;7370976;19;20031;-78
2022/08/14 04:32:09;;;;;;;3.13;1.88;;;25.70;42.60;;;;;;7368740;19;20015;-78
2022/08/14 04:34:41;;;;;;;5.30;2.35;;;25.70;42.40;;;;;;7368593;19;20083;-77
2022/08/14 04:45:14;;;;;;;4.13;2.75;;;25.80;42.70;;;;;;7366563;19;20583;-78
2022/08/14 04:50:29;;;;;;;4.55;2.95;;;25.70;43.50;;;;;;7369147;19;20010;-77
2022/08/14 04:52:57;;;;;;;10.07;3.20;;;25.70;43.70;;;;;;7367350;19;20014;-76
2022/08/14 04:55:26;;;;;;;7.68;2.90;;;25.70;43.80;;;;;;7389871;19;20110;-76
2022/08/14 04:57:55;;;;;;;3.38;2.75;;;25.60;43.90;;;;;;7367309;19;20387;-77
2022/08/14 05:00:24;;;;;;;8.90;2.58;;;25.60;43.60;;;;;;7368412;19;20015;-77
2022/08/14 05:02:52;;;;;;;5.88;2.78;;;25.60;43.80;;;;;;7368466;19;20456;-78
2022/08/14 05:05:23;;;;;;;4.72;2.60;;;25.60;44.10;;;;;;7368326;19;20788;-78
2022/08/14 05:07:55;;;;;;;6.32;2.85;;;25.60;44.10;;;;;;7367728;19;20018;-78
2022/08/14 05:10:25;;;;;;;6.60;2.75;;;25.60;43.90;;;;;;7388289;19;20014;-77
2022/08/14 05:12:54;;;;;;;4.05;2.33;;;25.60;43.80;;;;;;7367333;19;20453;-77
2022/08/14 05:15:22;;;;;;;6.40;3.20;;;25.60;43.10;;;;;;7367698;19;20021;-77
2022/08/14 05:17:52;;;;;;;7.60;3.05;;;25.60;43.70;;;;;;7366002;19;20591;-77
2022/08/14 05:20:24;;;;;;;4.70;2.78;;;25.60;43.50;;;;;;7366159;19;20360;-77
2022/08/14 05:22:56;;;;;;;6.07;2.70;;;25.50;43.40;;;;;;7367369;19;20505;-77
2022/08/14 05:25:24;;;;;;;5.90;2.70;;;25.50;44.20;;;;;;7387816;19;20048;-78
2022/08/14 05:27:58;;;;;;;4.68;2.50;;;25.50;44.30;;;;;;7365307;19;20098;-77
2022/08/14 05:30:27;;;;;;;4.75;3.20;;;25.50;44.70;;;;;;7367361;19;20014;-77
2022/08/14 05:32:56;;;;;;;7.75;2.90;;;25.50;44.90;;;;;;7368911;19;20450;-77
2022/08/14 05:35:25;;;;;;;5.28;3.38;;;25.50;44.90;;;;;;7368134;19;20042;-78
2022/08/14 05:37:56;;;;;;;6.13;2.97;;;25.40;44.60;;;;;;7367683;19;20029;-78
2022/08/14 05:40:25;;;;;;;;;;;25.40;44.50;;;;;;7388637;19;20109;-78
2022/08/14 05:42:54;;;;;;;3.83;2.20;;;25.40;44.80;;;;;;7364880;19;20309;-78
2022/08/14 05:45:23;;;;;;;6.15;2.72;;;25.50;44.60;;;;;;7364906;19;20011;-78
2022/08/14 05:47:52;;;;;;;8.00;3.05;;;25.40;44.60;;;;;;7366060;19;20014;-78
2022/08/14 05:50:21;;;;;;;6.03;3.20;;;25.40;45.10;;;;;;7365273;19;20011;-78
2022/08/14 05:52:50;;;;;;;15.73;3.03;;;25.40;45.40;;;;;;7362751;19;20043;-78
2022/08/14 05:55:23;;;;;;;5.43;2.67;;;25.50;44.70;;;;;;7388099;19;20018;-77
2022/08/14 05:57:54;;;;;;;4.70;3.13;;;25.60;44.60;;;;;;7362469;19;20010;-78
2022/08/14 06:00:23;;;;;;;;;;;25.60;45.00;;;;;;7364892;19;20034;-77
2022/08/14 06:02:56;;;;;;;9.15;3.00;;;25.70;45.50;;;;;;7365746;19;20456;-79
2022/08/14 06:05:24;;;;;;;7.45;3.00;;;25.60;45.60;;;;;;7365262;19;20089;-78
2022/08/14 06:07:53;;;;;;;4.55;2.80;;;25.60;45.60;;;;;;7364148;19;20109;-79
2022/08/14 06:10:24;;;;;;;6.50;2.60;;;25.60;45.30;;;;;;7386308;19;20022;-77
2022/08/14 06:12:53;;;;;;;;;;;25.60;45.10;;;;;;7364717;19;20086;-78
2022/08/14 06:15:22;;;;;;;4.75;2.70;;;25.60;45.00;;;;;;7365496;19;19918;-78
2022/08/14 06:17:52;;;;;;;4.38;2.72;;;25.70;45.10;;;;;;7364716;19;20426;-78
2022/08/14 06:20:21;;;;;;;7.30;3.10;;;25.70;45.50;;;;;;7364402;19;20039;-78
2022/08/14 06:22:50;;;;;;;12.90;2.95;;;25.70;45.60;;;;;;7364272;19;20014;-78
2022/08/14 06:25:19;;;;;;;4.35;2.88;;;25.70;45.80;;;;;;7384205;19;20103;-78
2022/08/14 06:27:54;;;;;;;4.22;2.78;;;25.70;46.00;;;;;;7363143;19;20074;-78
2022/08/14 06:30:25;;;;;;;7.25;3.10;;;25.70;46.00;;;;;;7364917;19;20014;-79
2022/08/14 06:32:54;;;;;;;4.22;2.58;;;25.70;45.90;;;;;;7364112;19;20014;-78
2022/08/14 06:35:22;;;;;;;7.68;2.92;;;25.80;46.20;;;;;;7364928;19;20014;-77
2022/08/14 06:37:53;;;;;;;13.15;3.38;;;25.80;46.40;;;;;;7362435;19;20014;-79
2022/08/14 06:40:24;;;;;;;5.20;3.00;;;25.80;46.50;;;;;;7386451;19;20014;-77
2022/08/14 06:43:00;;;;;;;7.32;3.13;;;25.80;46.70;;;;;;7362961;19;20010;-77
2022/08/14 06:45:29;;;;;;;8.07;3.20;;;25.80;46.60;;;;;;7362864;19;20018;-78
2022/08/14 06:48:00;;;;;;;6.53;2.80;;;25.80;46.20;;;;;;7364196;19;20077;-78
2022/08/14 06:50:33;;;;;;;7.65;3.20;;;25.90;46.20;;;;;;7362548;19;20010;-77
2022/08/14 06:53:06;;;;;;;6.40;2.72;;;26.00;46.30;;;;;;7364973;19;20010;-77
2022/08/14 06:55:34;;;;;;;6.50;3.42;;;26.00;46.40;;;;;;7380605;19;20010;-77
2022/08/14 06:58:06;;;;;;;4.72;2.88;;;26.00;46.50;;;;;;7385714;19;20107;-76
2022/08/14 07:00:35;;;;;;;8.20;3.20;;;26.00;46.60;;;;;;7363076;19;20039;-77
2022/08/14 07:05:48;;;;;;;4.53;2.80;;;26.10;46.80;;;;;;7364114;19;20712;-78
2022/08/14 07:08:19;;;;;;;6.68;2.88;;;26.20;46.50;;;;;;7364365;19;20052;-78
2022/08/14 07:10:48;;;;;;;;;;;26.20;46.60;;;;;;7370026;19;20024;-78
2022/08/14 07:13:20;;;;;;;3.42;2.63;;;26.30;46.50;;;;;;7390932;19;19925;-78
2022/08/14 07:15:50;;;;;;;3.70;2.67;;;26.30;46.30;;;;;;7370993;19;20035;-78
2022/08/14 07:18:22;;;;;;;7.10;3.05;;;26.30;46.10;;;;;;7371059;19;20017;-78
2022/08/14 07:20:51;;;;;;;5.72;3.00;;;26.40;46.10;;;;;;7368372;19;20094;-78
2022/08/14 07:23:22;;;;;;;5.43;2.40;;;26.50;45.90;;;;;;7370747;19;20464;-78
2022/08/14 07:25:52;;;;;;;7.30;2.80;;;26.60;45.70;;;;;;7370045;19;20522;-78
2022/08/14 07:28:26;;;;;;;6.13;2.22;;;26.70;45.30;;;;;;7391157;19;20326;-77
2022/08/14 07:30:57;;;;;;;3.35;2.28;;;26.80;43.90;;;;;;7369844;19;20086;-77
2022/08/14 07:33:28;;;;;;;8.48;2.20;;;27.00;42.90;;;;;;7368425;19;20377;-78
2022/08/14 07:35:58;;;;;;;3.77;2.37;;;27.00;41.70;;;;;;7372746;19;20073;-78
2022/08/14 07:38:28;;;;;;;4.50;2.20;;;27.10;41.40;;;;;;7369867;19;20231;-78
2022/08/14 07:40:58;;;;;;;3.28;2.30;;;27.20;41.50;;;;;;7369930;19;20421;-77
2022/08/14 07:43:29;;;;;;;3.35;2.45;;;27.20;41.40;;;;;;7391605;19;20050;-77
2022/08/14 07:45:58;;;;;;;5.20;2.30;;;27.20;40.90;;;;;;7372418;19;20029;-77
2022/08/14 07:48:27;;;;;;;5.18;2.30;;;27.20;41.00;;;;;;7377222;19;20071;-80
2022/08/14 07:50:56;;;;;;;4.68;2.55;;;27.30;41.10;;;;;;7388547;19;20025;-78
2022/08/14 07:53:25;;;;;;;7.90;3.05;;;27.20;41.40;;;;;;7377815;19;20018;-77
2022/08/14 07:55:54;;;;;;;4.80;2.65;;;27.20;41.80;;;;;;7373118;19;20024;-77
2022/08/14 07:58:23;;;;;;;5.40;2.97;;;27.00;42.10;;;;;;7389820;19;20744;-77
2022/08/14 08:00:57;;;;;;;7.70;3.03;;;26.90;42.60;;;;;;7369277;19;20011;-77
2022/08/14 08:03:27;;;;;;;7.47;3.33;;;26.60;43.10;;;;;;7369257;19;20838;-77
2022/08/14 08:05:56;;;;;;;4.67;3.13;;;26.80;43.50;;;;;;7367739;19;20093;-76
2022/08/14 08:08:27;;;;;;;6.47;3.00;;;26.50;43.90;;;;;;7369343;19;20498;-77
2022/08/14 08:10:58;;;;;;;8.60;3.20;;;26.60;44.50;;;;;;7365931;19;20026;-77
2022/08/14 08:13:28;;;;;;;10.18;3.22;;;26.80;44.50;;;;;;7390373;19;20014;-77
2022/08/14 08:16:02;;;;;;;9.25;3.50;;;26.90;44.50;;;;;;7366701;19;20014;-77
2022/08/14 08:18:31;;;;;;;9.05;3.25;;;27.10;44.70;;;;;;7369199;19;20058;-77
2022/08/14 08:21:00;;;;;;;8.98;3.33;;;27.30;44.70;;;;;;7366763;19;20049;-77
2022/08/14 08:23:32;;;;;;;10.48;3.60;;;27.40;44.60;;;;;;7368627;19;20064;-77
2022/08/14 08:26:01;;;;;;;7.05;3.38;;;27.10;45.00;;;;;;7368594;19;20086;-77
2022/08/14 08:28:30;;;;;;;8.57;3.25;;;27.30;45.20;;;;;;7390597;19;20031;-77
2022/08/14 08:31:05;;;;;;;7.65;3.20;;;27.40;45.30;;;;;;7367555;19;20014;-78
2022/08/14 08:33:37;;;;;;;10.80;3.40;;;27.50;45.00;;;;;;7367327;19;20015;-78
2022/08/14 08:36:10;;;;;;;6.38;3.58;;;27.50;45.20;;;;;;7367251;19;20022;-76
2022/08/14 08:38:39;;;;;;;11.38;3.45;;;27.70;45.20;;;;;;7369159;19;20138;-77
2022/08/14 08:41:09;;;;;;;9.40;3.70;;;27.50;45.50;;;;;;7368552;19;20035;-78
2022/08/14 08:43:38;;;;;;;14.18;3.88;;;27.40;45.70;;;;;;7366908;19;20022;-77
2022/08/14 08:46:11;;;;;;;11.55;3.50;;;27.40;45.90;;;;;;7386802;19;20405;-76
2022/08/14 08:48:47;;;;;;;8.30;2.88;;;27.40;46.20;;;;;;7369024;19;20010;-77
2022/08/14 08:51:29;;;;;;;7.93;3.25;;;27.50;46.40;;;;;;7368676;19;20014;-78
2022/08/14 08:54:00;;;;;;;6.75;3.42;;;27.40;46.70;;;;;;7367653;19;20117;-78
2022/08/14 08:56:40;;;;;;;8.80;3.60;;;27.60;46.80;;;;;;7368893;19;20141;-77
2022/08/14 08:59:20;;;;;;;8.45;3.58;;;27.60;46.20;;;;;;7369652;19;20011;-77
2022/08/14 09:01:54;;;;;;;13.30;3.43;;;27.50;46.60;;;;;;7368272;19;20014;-77
2022/08/14 09:04:24;;;;;;;11.02;3.70;;;27.70;46.70;;;;;;7388498;19;20038;-77
2022/08/14 09:06:54;;;;;;;8.75;3.50;;;27.70;46.60;;;;;;7368386;19;20018;-78
2022/08/14 09:09:24;;;;;;;11.00;3.38;;;28.00;46.70;;;;;;7368151;19;20014;-78
2022/08/14 09:11:55;;;;;;;8.20;3.42;;;28.10;46.10;;;;;;7365643;19;20007;-78
2022/08/14 09:14:25;;;;;;;6.07;3.30;;;28.30;45.60;;;;;;7367248;19;20019;-78
2022/08/14 09:17:01;;;;;;;6.68;3.20;;;28.20;45.60;;;;;;7365324;19;20750;-77
2022/08/14 09:19:30;;;;;;;10.70;3.03;;;28.40;45.60;;;;;;7387828;19;20024;-76
2022/08/14 09:21:59;;;;;;;11.98;3.30;;;28.40;45.30;;;;;;7366064;19;20082;-77
2022/08/14 09:24:28;;;;;;;7.15;3.25;;;28.50;45.00;;;;;;7365892;19;20006;-77
2022/08/14 09:26:57;;;;;;;7.30;3.10;;;28.50;44.70;;;;;;7367519;19;20019;-76
2022/08/14 09:29:26;;;;;;;7.70;3.80;;;28.60;44.30;;;;;;7367458;19;20371;-82
2022/08/14 09:32:02;;;;;;;9.32;3.28;;;28.40;44.30;;;;;;7379742;19;20122;-81
2022/08/14 09:34:48;;;;;;;6.72;2.88;;;28.20;44.60;;;;;;7394662;19;20022;-81
2022/08/14 09:37:32;;;;;;;11.95;3.30;;;28.40;44.80;;;;;;7376430;19;20010;-81
2022/08/14 09:40:07;;;;;;;9.88;3.38;;;28.50;44.30;;;;;;7373973;19;20022;-82
2022/08/14 09:42:45;;;;;;;4.88;2.88;;;28.40;43.90;;;;;;7381740;19;20058;-82
2022/08/14 09:45:17;;;;;;;7.22;2.78;;;28.50;44.00;;;;;;7381367;19;20014;-81
2022/08/14 09:47:51;;;;;;;6.60;2.88;;;28.60;44.20;;;;;;7379457;19;20131;-82
2022/08/14 09:50:24;;;;;;;7.25;3.08;;;28.60;43.80;;;;;;7383121;19;20015;-82
2022/08/14 09:52:55;;;;;;;10.50;3.10;;;28.80;43.80;;;;;;7382807;19;20047;-81
2022/08/14 09:55:26;;;;;;;11.25;3.30;;;28.90;43.50;;;;;;7394130;19;20418;-82
2022/08/14 09:58:10;;;;;;;6.88;3.20;;;29.00;43.30;;;;;;7364586;19;20015;-82
2022/08/14 10:00:46;;;;;;;7.75;3.05;;;29.00;43.20;;;;;;7370114;19;20013;-81
2022/08/14 10:03:29;;;;;;;8.82;3.00;;;29.00;42.70;;;;;;7366254;19;20512;-80
2022/08/14 10:06:10;;;;;;;8.68;3.15;;;29.10;42.90;;;;;;7366780;19;20018;-81
2022/08/14 10:08:45;;;;;;;3.72;2.70;;;29.00;43.00;;;;;;7364833;19;20013;-81
2022/08/14 10:11:18;;;;;;;9.35;3.03;;;28.90;43.20;;;;;;7363748;19;20014;-81
2022/08/14 10:13:51;;;;;;;7.60;2.95;;;29.00;43.20;;;;;;7361660;19;20022;-82
2022/08/14 10:16:22;;;;;;;9.13;3.10;;;28.90;43.30;;;;;;7385118;19;20071;-80
2022/08/14 10:19:05;;;;;;;7.97;3.30;;;28.90;43.00;;;;;;7365004;19;20598;-82
2022/08/14 10:21:37;;;;;;;6.75;2.95;;;28.90;43.30;;;;;;7363932;19;20010;-81
2022/08/14 10:24:11;;;;;;;6.78;2.95;;;29.00;42.90;;;;;;7364124;19;20019;-81
2022/08/14 10:26:42;;;;;;;8.15;2.70;;;28.90;42.90;;;;;;7364548;19;20124;-81
2022/08/14 10:29:16;;;;;;;6.22;2.50;;;28.90;42.70;;;;;;7364600;19;20039;-80
2022/08/14 10:31:44;;;;;;;10.90;2.65;;;28.80;42.50;;;;;;7362202;19;20320;-80
2022/08/14 10:34:23;;;;;;;8.15;3.05;;;29.00;42.30;;;;;;7385729;19;20023;-81
2022/08/14 10:37:04;;;;;;;12.88;2.90;;;29.10;42.10;;;;;;7365841;19;20010;-82
2022/08/14 10:39:34;;;;;;;7.70;3.00;;;29.20;42.00;;;;;;7371858;19;20034;-81
2022/08/14 10:42:05;;;;;;;13.13;3.35;;;29.30;41.80;;;;;;7372762;19;20035;-81
2022/08/14 10:44:39;;;;;;;7.75;3.33;;;29.10;42.60;;;;;;7368979;19;20473;-82
2022/08/14 10:47:13;;;;;;;5.60;3.25;;;29.30;43.10;;;;;;7370963;19;20048;-80
2022/08/14 10:49:56;;;;;;;6.20;3.03;;;29.10;43.30;;;;;;7370912;19;20094;-82
2022/08/14 10:52:29;;;;;;;10.30;3.58;;;29.10;43.60;;;;;;7391186;19;20118;-81
2022/08/14 10:55:12;;;;;;;12.35;3.38;;;29.10;43.60;;;;;;7370848;19;20021;-81
2022/08/14 10:57:50;;;;;;;7.38;3.47;;;29.20;43.60;;;;;;7369044;19;20019;-81
2022/08/14 11:00:21;;;;;;;9.65;3.97;;;29.20;43.40;;;;;;7369487;19;20109;-81
2022/08/14 11:03:00;;;;;;;6.22;3.10;;;29.10;43.30;;;;;;7370520;19;20113;-80
2022/08/14 11:05:42;;;;;;;7.72;3.40;;;29.20;43.40;;;;;;7369542;19;20083;-81
2022/08/14 11:08:13;;;;;;;9.70;3.00;;;29.20;43.20;;;;;;7368479;19;20048;-80
2022/08/14 11:10:47;;;;;;;8.20;3.15;;;29.10;43.30;;;;;;7370937;19;20014;-81
2022/08/14 11:13:20;;;;;;;7.18;3.47;;;29.20;43.40;;;;;;7392985;19;20598;-82
2022/08/14 11:15:50;;;;;;;11.52;3.80;;;29.30;43.60;;;;;;7370641;19;20434;-82
2022/08/14 11:21:24;;;;;;;10.35;3.38;;;29.10;43.90;;;;;;7374491;19;20017;-77
2022/08/14 11:23:53;;;;;;;8.43;3.35;;;29.10;44.00;;;;;;7371478;19;20363;-78
2022/08/14 11:26:23;;;;;;;10.27;3.60;;;29.10;44.40;;;;;;7371553;19;20438;-78
2022/08/14 11:28:52;;;;;;;10.57;3.65;;;29.20;44.70;;;;;;7371146;19;20029;-79
2022/08/14 11:31:24;;;;;;;4.78;3.42;;;29.20;45.20;;;;;;7399795;19;20046;-78
2022/08/14 11:33:59;;;;;;;8.95;4.07;;;29.10;45.80;;;;;;7380468;19;20014;-78
2022/08/14 11:36:31;;;;;;;8.60;3.83;;;29.20;46.50;;;;;;7339569;19;20022;-78
2022/08/14 11:39:00;;;;;;;12.82;4.10;;;29.30;47.10;;;;;;7370001;19;20019;-77
2022/08/14 11:41:28;;;;;;;14.15;3.60;;;29.30;47.20;;;;;;7368274;19;20818;-78
2022/08/14 11:43:58;;;;;;;6.50;3.70;;;29.30;46.90;;;;;;7365939;19;20047;-77
2022/08/14 11:46:28;;;;;;;13.50;3.60;;;29.20;46.80;;;;;;7390565;19;20574;-76
2022/08/14 11:48:57;;;;;;;21.15;3.78;;;29.20;46.70;;;;;;7364293;19;20031;-77
2022/08/14 11:51:27;;;;;;;8.75;3.67;;;29.10;46.50;;;;;;7378191;19;20010;-78
2022/08/14 11:54:05;;;;;;;8.85;3.95;;;29.00;46.70;;;;;;7371919;19;20014;-78
2022/08/14 11:56:38;;;;;;;9.85;3.15;;;29.00;46.80;;;;;;7367975;19;20077;-78
2022/08/14 11:59:09;;;;;;;8.43;3.30;;;28.90;47.00;;;;;;7369403;19;20022;-79
2022/08/14 12:01:38;;;;;;;7.93;3.42;;;28.70;47.20;;;;;;7369243;19;20048;-77
2022/08/14 12:04:16;;;;;;;5.88;3.00;;;28.50;47.50;;;;;;7388704;19;20090;-78
2022/08/14 12:06:51;;;;;;;6.72;3.33;;;28.30;47.70;;;;;;7369892;19;20003;-80
2022/08/14 12:09:33;;;;;;;9.45;3.10;;;28.40;47.70;;;;;;7370273;19;20025;-81
2022/08/14 12:12:03;;;;;;;9.10;3.30;;;28.40;47.70;;;;;;7373200;19;20326;-80
2022/08/14 12:14:32;;;;;;;7.05;3.10;;;28.50;47.70;;;;;;7372882;19;20046;-78
2022/08/14 12:17:05;;;;;;;11.60;2.97;;;28.60;47.60;;;;;;7375248;19;20037;-77
2022/08/14 12:19:49;;;;;;;7.70;2.55;;;28.50;47.70;;;;;;7391654;19;20014;-80
2022/08/14 12:22:18;;;;;;;8.13;3.42;;;28.60;47.70;;;;;;7370269;19;20018;-83
2022/08/14 12:24:55;;;;;;;5.13;2.40;;;28.70;47.80;;;;;;7371526;19;20007;-78
2022/08/14 12:27:37;;;;;;;7.22;2.80;;;28.70;48.10;;;;;;7369091;19;20037;-79
2022/08/14 12:30:07;;;;;;;8.00;2.70;;;28.60;48.60;;;;;;7370159;19;20101;-78
2022/08/14 12:32:43;;;;;;;4.72;2.55;;;28.50;49.00;;;;;;7369493;19;20605;-78
2022/08/14 12:35:16;;;;;;;9.15;2.70;;;28.40;49.00;;;;;;7370654;19;20030;-78
2022/08/14 12:37:50;;;;;;;9.45;3.10;;;28.40;49.10;;;;;;7367325;19;20039;-78
2022/08/14 12:40:27;;;;;;;9.40;2.70;;;28.40;49.30;;;;;;7390606;19;20026;-78
2022/08/14 12:43:02;;;;;;;17.40;2.70;;;28.50;49.30;;;;;;7367583;19;20022;-78
2022/08/14 12:45:36;;;;;;;6.18;2.53;;;28.30;49.50;;;;;;7367666;19;20018;-77
2022/08/14 12:48:07;;;;;;;9.10;2.70;;;28.40;49.70;;;;;;7367891;19;20074;-77
2022/08/14 12:50:40;;;;;;;;;;;28.30;50.00;;;;;;7368560;19;20553;-76
2022/08/14 12:53:09;;;;;;;12.68;3.05;;;28.40;50.10;;;;;;7366639;19;19921;-76
2022/08/14 12:55:43;;;;;;;5.88;3.00;;;28.40;50.20;;;;;;7370830;19;20437;-77
2022/08/14 12:58:12;;;;;;;17.27;3.33;;;28.50;50.90;;;;;;7390236;19;20014;-79
2022/08/14 13:00:51;;;;;;;8.93;2.58;;;28.50;50.80;;;;;;7368067;19;20531;-78
2022/08/14 13:03:26;;;;;;;6.13;3.05;;;28.50;50.70;;;;;;7367921;19;20176;-78
2022/08/14 13:05:55;;;;;;;7.70;2.53;;;28.50;50.40;;;;;;7370362;19;20081;-80
2022/08/14 13:08:24;;;;;;;6.45;2.40;;;28.50;50.20;;;;;;7369108;19;20010;-80
2022/08/14 13:10:58;;;;;;;9.50;3.22;;;28.50;50.10;;;;;;7372171;19;20115;-79
2022/08/14 13:13:32;;;;;;;9.45;3.05;;;28.40;50.40;;;;;;7392020;19;20017;-79
2022/08/14 13:16:01;;;;;;;9.02;2.78;;;28.40;51.00;;;;;;7369638;19;20015;-78
2022/08/14 13:18:32;;;;;;;11.55;2.60;;;28.30;51.30;;;;;;7364211;19;20452;-77
2022/08/14 13:21:04;;;;;;;7.32;2.47;;;28.30;52.40;;;;;;7365583;19;20011;-79
2022/08/14 13:23:35;;;;;;;14.43;2.97;;;28.40;53.60;;;;;;7366095;19;20018;-79
2022/08/14 13:26:08;;;;;;;6.93;2.75;;;28.40;53.20;;;;;;7365300;19;20014;-78
2022/08/14 13:28:41;;;;;;;14.30;2.90;;;28.40;54.20;;;;;;7366661;19;20018;-80